createdAt,value
2019-04-23T00:01:36.752Z,11.48
2019-04-23T00:04:07.248Z,11.29
2019-04-23T00:06:42.912Z,11.31
2019-04-23T00:09:26.076Z,11.30
2019-04-23T00:11:45.862Z,11.23
2019-04-23T00:14:23.992Z,11.22
2019-04-23T00:16:49.248Z,11.30
2019-04-23T00:19:16.941Z,11.26
2019-04-23T00:22:10.344Z,11.22
2019-04-23T00:25:38.079Z,11.16
2019-04-23T00:27:45.773Z,11.10
2019-04-23T00:30:13.093Z,11.14
2019-04-23T00:32:51.744Z,11.19
2019-04-23T00:35:18.095Z,11.06
2019-04-23T00:37:48.415Z,11.05
2019-04-23T00:40:25.999Z,11.08
2019-04-23T00:42:53.278Z,11.04
2019-04-23T00:45:34.994Z,11.02
2019-04-23T00:47:55.134Z,10.93
2019-04-23T00:50:38.446Z,11.00
2019-04-23T00:53:19.423Z,11.05
2019-04-23T00:55:35.706Z,10.93
2019-04-23T00:58:12.627Z,10.99
2019-04-23T01:00:41.201Z,10.84
2019-04-23T01:03:12.525Z,10.88
2019-04-23T01:05:45.447Z,10.92
2019-04-23T01:11:04.716Z,10.87
2019-04-23T01:13:31.604Z,10.78
2019-04-23T01:16:08.512Z,10.80
2019-04-23T01:18:51.438Z,10.80
2019-04-23T01:20:58.648Z,10.71
2019-04-23T01:23:55.887Z,10.76
2019-04-23T01:26:42.151Z,10.76
2019-04-23T01:29:37.288Z,10.75
2019-04-23T01:34:26.042Z,10.79
2019-04-23T01:36:54.593Z,10.80
2019-04-23T01:39:22.825Z,10.77
2019-04-23T01:42:03.658Z,10.74
2019-04-23T01:44:36.794Z,10.77
2019-04-23T01:47:02.097Z,10.79
2019-04-23T01:49:44.974Z,10.76
2019-04-23T01:52:12.912Z,10.73
2019-04-23T01:54:37.195Z,10.66
2019-04-23T01:57:21.469Z,10.71
2019-04-23T01:59:49.044Z,10.69
2019-04-23T02:02:19.346Z,10.69
2019-04-23T02:04:55.621Z,10.61
2019-04-23T02:07:25.889Z,10.66
2019-04-23T02:10:02.845Z,10.62
2019-04-23T02:12:25.836Z,10.67
2019-04-23T02:14:57.763Z,10.57
2019-04-23T02:17:36.369Z,10.63
2019-04-23T02:20:14.116Z,10.66
2019-04-23T02:23:09.802Z,10.70
2019-04-23T02:25:45.728Z,10.63
2019-04-23T02:31:11.654Z,10.56
2019-04-23T02:33:29.471Z,10.50
2019-04-23T02:35:55.638Z,10.55
2019-04-23T02:41:13.174Z,10.47
2019-04-23T02:48:54.607Z,10.33
2019-04-23T02:51:29.058Z,10.49
2019-04-23T02:56:31.201Z,10.29
2019-04-23T02:59:02.437Z,10.34
2019-04-23T03:06:38.461Z,10.29
2019-04-23T03:09:09.826Z,10.30
2019-04-23T03:11:45.676Z,10.21
2019-04-23T03:14:25.056Z,10.25
2019-04-23T03:16:56.384Z,10.27
2019-04-23T03:19:40.175Z,10.21
2019-04-23T03:22:25.143Z,10.22
2019-04-23T03:27:49.864Z,10.15
2019-04-23T03:30:49.649Z,10.17
2019-04-23T03:36:13.893Z,10.14
2019-04-23T03:40:32.427Z,9.95
2019-04-23T03:43:06.641Z,10.02
2019-04-23T03:46:00.800Z,9.99
2019-04-23T03:48:25.740Z,9.97
2019-04-23T03:50:39.060Z,9.94
2019-04-23T03:53:34.676Z,9.90
2019-04-23T03:58:38.275Z,9.85
2019-04-23T04:01:07.496Z,9.84
2019-04-23T04:04:04.317Z,9.86
2019-04-23T04:08:47.438Z,9.86
2019-04-23T04:11:14.621Z,9.86
2019-04-23T04:16:19.396Z,9.78
2019-04-23T04:18:54.654Z,9.75
2019-04-23T04:21:36.907Z,9.81
2019-04-23T04:26:46.689Z,9.78
2019-04-23T04:29:08.856Z,9.73
2019-04-23T04:36:58.720Z,9.81
2019-04-23T04:39:17.788Z,9.86
2019-04-23T04:47:15.817Z,9.84
2019-04-23T04:49:34.024Z,9.83
2019-04-23T04:52:13.493Z,9.96
2019-04-23T04:54:23.112Z,10.05
2019-04-23T04:57:12.962Z,10.00
2019-04-23T05:02:20.877Z,9.95
2019-04-23T05:04:48.338Z,10.05
2019-04-23T05:07:19.198Z,10.08
2019-04-23T05:09:57.009Z,10.10
2019-04-23T05:12:18.930Z,10.14
2019-04-23T05:18:10.944Z,10.17
2019-04-23T05:20:21.187Z,10.23
2019-04-23T05:23:00.177Z,10.28
2019-04-23T05:25:16.974Z,10.28
2019-04-23T05:28:02.750Z,10.32
2019-04-23T05:32:56.426Z,10.43
2019-04-23T05:35:47.883Z,10.48
2019-04-23T05:43:03.311Z,10.57
2019-04-23T05:45:39.893Z,10.60
2019-04-23T05:48:19.789Z,10.65
2019-04-23T05:51:00.872Z,10.64
2019-04-23T05:53:18.937Z,10.74
2019-04-23T05:55:55.477Z,10.79
2019-04-23T05:58:30.132Z,10.81
2019-04-23T06:01:39.851Z,10.86
2019-04-23T06:03:52.691Z,10.94
2019-04-23T06:06:20.943Z,10.99
2019-04-23T06:08:53.142Z,11.02
2019-04-23T06:11:28.449Z,11.07
2019-04-23T06:14:02.057Z,11.13
2019-04-23T06:16:30.966Z,11.14
2019-04-23T06:19:04.527Z,11.18
2019-04-23T06:21:34.549Z,11.25
2019-04-23T06:24:10.385Z,11.32
2019-04-23T06:26:40.092Z,11.39
2019-04-23T06:29:19.449Z,11.41
2019-04-23T06:34:16.799Z,11.50
2019-04-23T06:39:15.871Z,11.62
2019-04-23T06:41:50.188Z,11.67
2019-04-23T06:46:56.948Z,11.73
2019-04-23T06:49:30.686Z,11.82
2019-04-23T06:54:35.811Z,11.95
2019-04-23T06:57:11.865Z,12.00
2019-04-23T06:59:30.692Z,12.05
2019-04-23T07:02:11.852Z,12.15
2019-04-23T07:04:41.101Z,12.21
2019-04-23T07:07:34.799Z,12.27
2019-04-23T07:09:42.415Z,12.33
2019-04-23T07:12:08.757Z,12.40
2019-04-23T07:17:21.322Z,12.52
2019-04-23T07:19:49.794Z,12.58
2019-04-23T07:22:21.655Z,12.69
2019-04-23T07:24:52.801Z,12.75
2019-04-23T07:27:34.700Z,12.79
2019-04-23T07:30:03.540Z,12.88
2019-04-23T07:32:29.098Z,12.92
2019-04-23T07:35:10.382Z,12.95
2019-04-23T07:37:40.303Z,13.03
2019-04-23T07:43:08.916Z,13.21
2019-04-23T07:45:57.574Z,13.32
2019-04-23T07:48:24.229Z,13.37
2019-04-23T07:50:55.200Z,13.46
2019-04-23T07:53:33.518Z,13.53
2019-04-23T07:56:05.914Z,13.55
2019-04-23T07:58:29.210Z,13.68
2019-04-23T08:01:03.647Z,13.74
2019-04-23T08:06:05.876Z,13.79
2019-04-23T08:08:43.857Z,13.99
2019-04-23T08:16:28.229Z,14.16
2019-04-23T08:18:54.409Z,14.31
2019-04-23T08:21:39.972Z,14.38
2019-04-23T08:24:20.219Z,14.51
2019-04-23T08:27:24.200Z,14.56
2019-04-23T08:29:47.725Z,14.70
2019-04-23T08:32:18.623Z,14.76
2019-04-23T08:37:34.667Z,15.03
2019-04-23T08:40:04.737Z,15.06
2019-04-23T08:42:47.994Z,15.21
2019-04-23T08:48:41.790Z,15.31
2019-04-23T08:51:19.537Z,15.37
2019-04-23T08:53:37.402Z,15.50
2019-04-23T08:56:15.555Z,15.58
2019-04-23T09:03:42.790Z,15.90
2019-04-23T09:06:13.967Z,16.06
2019-04-23T09:08:43.692Z,15.97
2019-04-23T09:11:30.391Z,16.07
2019-04-23T09:16:27.346Z,16.04
2019-04-23T09:18:58.518Z,16.22
2019-04-23T09:21:30.848Z,16.36
2019-04-23T09:26:26.169Z,16.30
2019-04-23T09:29:10.411Z,16.38
2019-04-23T09:32:13.551Z,16.35
2019-04-23T09:37:34.691Z,16.39
2019-04-23T09:40:27.879Z,16.58
2019-04-23T09:43:12.120Z,16.53
2019-04-23T09:46:02.416Z,16.46
2019-04-23T09:48:33.295Z,16.56
2019-04-23T09:56:01.269Z,16.72
2019-04-23T09:58:28.781Z,16.89
2019-04-23T10:01:23.549Z,16.87
2019-04-23T10:03:38.637Z,16.91
2019-04-23T10:06:04.125Z,16.96
2019-04-23T10:08:35.532Z,17.24
2019-04-23T10:11:01.064Z,17.28
2019-04-23T10:13:31.679Z,17.26
2019-04-23T10:16:02.359Z,17.41
2019-04-23T10:18:37.318Z,17.59
2019-04-23T10:21:07.824Z,17.62
2019-04-23T10:23:39.087Z,17.45
2019-04-23T10:26:10.111Z,17.56
2019-04-23T10:28:49.681Z,17.54
2019-04-23T10:31:20.916Z,17.56
2019-04-23T10:33:52.379Z,17.77
2019-04-23T10:36:25.864Z,17.79
2019-04-23T10:39:02.320Z,17.81
2019-04-23T10:41:28.007Z,17.66
2019-04-23T10:44:07.184Z,17.66
2019-04-23T10:47:15.167Z,17.59
2019-04-23T10:50:05.088Z,17.60
2019-04-23T10:52:25.883Z,17.69
2019-04-23T10:55:11.993Z,17.70
2019-04-23T10:57:25.275Z,17.77
2019-04-23T10:59:58.434Z,17.97
2019-04-23T11:05:08.263Z,17.94
2019-04-23T11:10:23.905Z,18.19
2019-04-23T11:12:49.090Z,18.11
2019-04-23T11:17:59.528Z,18.24
2019-04-23T11:20:49.323Z,18.25
2019-04-23T11:23:01.647Z,18.26
2019-04-23T11:25:45.089Z,18.38
2019-04-23T11:28:22.656Z,18.34
2019-04-23T11:31:15.667Z,18.27
2019-04-23T11:33:43.085Z,18.23
2019-04-23T11:36:41.490Z,18.30
2019-04-23T11:41:28.570Z,18.42
2019-04-23T11:44:13.489Z,18.33
2019-04-23T11:46:39.755Z,18.44
2019-04-23T11:54:01.304Z,18.53
2019-04-23T11:57:07.948Z,18.48
2019-04-23T11:59:13.373Z,18.40
2019-04-23T12:04:55.862Z,18.88
2019-04-23T12:07:22.652Z,18.83
2019-04-23T12:10:44.453Z,18.77
2019-04-23T12:13:03.121Z,18.81
2019-04-23T12:18:11.036Z,18.73
2019-04-23T12:20:37.642Z,18.77
2019-04-23T12:23:24.008Z,18.76
2019-04-23T12:25:48.438Z,18.89
2019-04-23T12:28:20.549Z,18.95
2019-04-23T12:31:13.665Z,19.03
2019-04-23T12:33:30.172Z,19.07
2019-04-23T12:36:21.306Z,19.12
2019-04-23T12:38:45.308Z,19.22
2019-04-23T12:41:14.701Z,19.22
2019-04-23T12:43:49.424Z,19.16
2019-04-23T12:46:27.347Z,19.21
2019-04-23T12:49:03.309Z,19.19
2019-04-23T12:51:35.062Z,19.20
2019-04-23T12:53:49.066Z,19.18
2019-04-23T12:56:42.193Z,19.20
2019-04-23T12:58:57.530Z,19.28
2019-04-23T13:01:45.483Z,19.28
2019-04-23T13:03:59.709Z,19.31
2019-04-23T13:06:36.800Z,19.37
2019-04-23T13:11:40.867Z,19.51
2019-04-23T13:14:17.666Z,19.48
2019-04-23T13:16:58.956Z,19.52
2019-04-23T13:19:37.405Z,19.57
2019-04-23T13:22:12.033Z,19.61
2019-04-23T13:24:44.088Z,19.75
2019-04-23T13:27:23.930Z,19.64
2019-04-23T13:29:51.860Z,19.54
2019-04-23T13:32:20.498Z,19.52
2019-04-23T13:34:56.190Z,19.54
2019-04-23T13:37:31.403Z,19.63
2019-04-23T13:39:52.878Z,19.68
2019-04-23T13:42:37.946Z,19.81
2019-04-23T13:44:57.506Z,19.70
2019-04-23T13:50:07.825Z,19.75
2019-04-23T13:52:57.843Z,19.76
2019-04-23T13:58:04.940Z,19.77
2019-04-23T14:00:20.898Z,19.80
2019-04-23T14:02:43.843Z,19.88
2019-04-23T14:05:41.133Z,19.96
2019-04-23T14:10:55.852Z,20.11
2019-04-23T14:13:37.821Z,20.49
2019-04-23T14:21:08.576Z,20.59
2019-04-23T14:23:52.695Z,20.66
2019-04-23T14:28:41.910Z,20.90
2019-04-23T14:31:10.991Z,20.69
2019-04-23T14:33:52.616Z,20.68
2019-04-23T14:36:25.325Z,20.77
2019-04-23T14:39:04.214Z,20.80
2019-04-23T14:44:10.751Z,20.94
2019-04-23T14:46:45.600Z,20.81
2019-04-23T14:49:11.617Z,20.81
2019-04-23T14:54:13.040Z,21.01
2019-04-23T14:56:44.883Z,20.97
2019-04-23T14:59:10.564Z,20.86
2019-04-23T15:01:55.019Z,20.94
2019-04-23T15:04:36.073Z,21.13
2019-04-23T15:07:10.374Z,21.11
2019-04-23T15:15:02.826Z,21.01
2019-04-23T15:17:34.066Z,20.97
2019-04-23T15:20:11.640Z,21.05
2019-04-23T15:22:41.524Z,20.92
2019-04-23T15:30:05.797Z,21.81
2019-04-23T15:32:58.118Z,22.00
2019-04-23T15:35:31.710Z,21.94
2019-04-23T15:40:23.277Z,22.09
2019-04-23T15:43:05.853Z,22.02
2019-04-23T15:45:42.209Z,22.13
2019-04-23T15:48:12.000Z,21.95
2019-04-23T15:51:04.453Z,21.65
2019-04-23T15:53:11.423Z,21.80
2019-04-23T15:56:04.444Z,21.72
2019-04-23T15:58:37.265Z,21.64
2019-04-23T16:03:39.880Z,21.94
2019-04-23T16:06:13.631Z,22.20
2019-04-23T16:16:51.255Z,22.02
2019-04-23T16:19:52.939Z,22.37
2019-04-23T16:22:32.102Z,22.66
2019-04-23T16:24:59.644Z,23.04
2019-04-23T16:27:17.031Z,22.75
2019-04-23T16:30:09.686Z,22.23
2019-04-23T16:38:10.576Z,21.98
2019-04-23T16:40:34.778Z,21.97
2019-04-23T16:43:03.747Z,22.01
2019-04-23T16:48:14.115Z,21.71
2019-04-23T16:50:54.751Z,21.76
2019-04-23T17:01:05.933Z,21.58
2019-04-23T17:03:36.239Z,21.60
2019-04-23T17:06:30.690Z,21.76
2019-04-23T17:09:04.427Z,21.55
2019-04-23T17:11:38.631Z,21.31
2019-04-23T17:14:09.203Z,21.08
2019-04-23T17:21:44.434Z,20.85
2019-04-23T17:24:21.236Z,20.43
2019-04-23T17:27:09.384Z,20.56
2019-04-23T17:29:26.805Z,20.16
2019-04-23T17:31:53.077Z,19.89
2019-04-23T17:34:35.066Z,19.72
2019-04-23T17:37:12.115Z,19.67
2019-04-23T17:40:04.630Z,19.47
2019-04-23T17:43:00.211Z,19.22
2019-04-23T17:45:33.825Z,18.94
2019-04-23T17:48:34.974Z,18.93
2019-04-23T17:50:52.705Z,18.81
2019-04-23T17:53:25.252Z,18.83
2019-04-23T17:56:20.077Z,18.82
2019-04-23T17:58:28.626Z,18.53
2019-04-23T18:01:17.581Z,18.38
2019-04-23T18:03:55.944Z,18.27
2019-04-23T18:06:28.037Z,18.22
2019-04-23T18:19:10.071Z,17.77
2019-04-23T18:21:46.152Z,17.72
2019-04-23T18:24:27.224Z,17.53
2019-04-23T18:27:15.480Z,17.49
2019-04-23T18:35:36.089Z,17.29
2019-04-23T18:40:59.361Z,17.17
2019-04-23T18:43:26.941Z,17.12
2019-04-23T18:53:43.557Z,16.86
2019-04-23T18:56:31.299Z,16.87
2019-04-23T18:58:54.427Z,16.89
2019-04-23T19:01:28.012Z,16.72
2019-04-23T19:04:41.646Z,16.74
2019-04-23T19:07:31.893Z,16.77
2019-04-23T19:10:31.864Z,16.63
2019-04-23T19:13:09.543Z,16.53
2019-04-23T19:15:59.809Z,16.50
2019-04-23T19:18:35.205Z,16.47
2019-04-23T19:21:10.905Z,16.59
2019-04-23T19:23:39.396Z,16.51
2019-04-23T19:26:25.765Z,16.38
2019-04-23T19:31:49.158Z,16.31
2019-04-23T19:39:26.481Z,16.21
2019-04-23T19:44:34.567Z,16.20
2019-04-23T19:47:23.429Z,16.18
2019-04-23T19:50:03.823Z,16.06
2019-04-23T19:52:28.611Z,16.04
2019-04-23T19:57:33.623Z,15.90
2019-04-23T19:59:55.348Z,15.78
2019-04-23T20:04:59.544Z,15.66
2019-04-23T20:07:46.235Z,15.71
2019-04-23T20:10:19.987Z,15.81
2019-04-23T20:12:50.054Z,15.65
2019-04-23T20:15:21.910Z,15.70
2019-04-23T20:17:54.125Z,15.68
2019-04-23T20:20:26.529Z,15.55
2019-04-23T20:22:56.792Z,15.55
2019-04-23T20:26:02.781Z,15.60
2019-04-23T20:28:24.284Z,15.53
2019-04-23T20:34:19.689Z,15.52
2019-04-23T20:39:21.493Z,15.35
2019-04-23T20:42:10.885Z,15.29
2019-04-23T20:47:16.076Z,15.11
2019-04-23T20:52:21.387Z,15.14
2019-04-23T20:58:13.867Z,15.02
2019-04-23T21:01:14.341Z,15.06
2019-04-23T21:03:49.099Z,14.98
2019-04-23T21:06:19.675Z,14.95
2019-04-23T21:09:23.654Z,14.92
2019-04-23T21:11:58.762Z,14.86
2019-04-23T21:14:38.599Z,14.78
2019-04-23T21:17:04.111Z,14.80
2019-04-23T21:20:15.808Z,14.73
2019-04-23T21:22:36.895Z,14.68
2019-04-23T21:25:22.372Z,14.48
2019-04-23T21:28:25.036Z,14.54
2019-04-23T21:31:22.954Z,14.57
2019-04-23T21:33:43.804Z,14.50
2019-04-23T21:39:13.623Z,14.44
2019-04-23T21:44:18.994Z,14.44
2019-04-23T21:46:58.818Z,14.47
2019-04-23T21:49:38.975Z,14.37
2019-04-23T21:52:16.443Z,14.36
2019-04-23T21:54:47.161Z,14.41
2019-04-23T21:57:14.672Z,14.26
2019-04-23T21:59:50.486Z,14.40
2019-04-23T22:02:22.028Z,14.40
2019-04-23T22:05:01.523Z,14.41
2019-04-23T22:07:42.022Z,14.47
2019-04-23T22:10:09.212Z,14.34
2019-04-23T22:12:46.776Z,14.27
2019-04-23T22:15:04.622Z,14.32
2019-04-23T22:17:44.761Z,14.32
2019-04-23T22:23:05.100Z,14.19
2019-04-23T22:25:25.294Z,14.12
2019-04-23T22:27:54.511Z,14.16
2019-04-23T22:30:30.831Z,14.14
2019-04-23T22:33:09.552Z,14.26
2019-04-23T22:36:01.394Z,14.19
2019-04-23T22:38:29.433Z,14.16
2019-04-23T22:41:06.512Z,14.16
2019-04-23T22:44:00.582Z,14.12
2019-04-23T22:46:36.960Z,14.00
2019-04-23T22:49:22.833Z,14.05
2019-04-23T22:51:55.446Z,14.00
2019-04-23T22:54:32.389Z,13.96
2019-04-23T22:57:16.990Z,14.02
2019-04-23T23:00:00.726Z,14.02
2019-04-23T23:02:54.567Z,13.93
2019-04-23T23:05:30.981Z,14.00
2019-04-23T23:07:58.998Z,13.90
2019-04-23T23:10:23.303Z,13.88
2019-04-23T23:13:01.745Z,14.02
2019-04-23T23:15:22.734Z,13.97
2019-04-23T23:23:06.172Z,13.89
2019-04-23T23:25:30.483Z,13.75
2019-04-23T23:28:22.372Z,13.71
2019-04-23T23:30:45.501Z,13.71
2019-04-23T23:33:13.319Z,13.72
2019-04-23T23:35:44.223Z,13.71
2019-04-23T23:38:14.806Z,13.73
2019-04-23T23:43:24.210Z,13.69
2019-04-23T23:46:04.887Z,13.65
2019-04-23T23:48:18.576Z,13.62
2019-04-23T23:50:58.858Z,13.76
